createdAt,value
2023-04-11T00:00:51.647Z,15.70
2023-04-11T00:03:23.106Z,15.70
2023-04-11T00:05:54.235Z,15.70
2023-04-11T00:08:25.545Z,15.80
2023-04-11T00:10:56.464Z,15.70
2023-04-11T00:13:27.413Z,15.70
2023-04-11T00:15:59.330Z,15.70
2023-04-11T00:18:30.264Z,15.70
2023-04-11T00:21:01.136Z,15.60
2023-04-11T00:23:32.165Z,15.70
2023-04-11T00:26:03.556Z,15.80
2023-04-11T00:28:35.979Z,15.70
2023-04-11T00:31:07.416Z,15.80
2023-04-11T00:33:40.516Z,15.80
2023-04-11T00:36:12.058Z,15.80
2023-04-11T00:38:44.812Z,15.90
2023-04-11T00:41:15.928Z,15.80
2023-04-11T00:43:47.268Z,15.70
2023-04-11T00:46:18.542Z,15.70
2023-04-11T00:48:50.038Z,15.70
2023-04-11T00:51:21.721Z,15.70
2023-04-11T00:53:53.162Z,15.70
2023-04-11T00:56:24.084Z,15.70
2023-04-11T00:58:55.981Z,15.80
2023-04-11T01:01:30.187Z,15.80
2023-04-11T01:04:01.478Z,15.80
2023-04-11T01:06:33.714Z,15.80
2023-04-11T01:09:05.096Z,15.80
2023-04-11T01:11:36.062Z,15.80
2023-04-11T01:14:07.264Z,15.80
2023-04-11T01:16:38.161Z,15.70
2023-04-11T01:19:09.422Z,15.80
2023-04-11T01:21:41.115Z,15.80
2023-04-11T01:24:12.173Z,15.80
2023-04-11T01:26:43.159Z,15.70
2023-04-11T01:29:14.139Z,15.70
2023-04-11T01:31:45.204Z,15.70
2023-04-11T01:34:17.800Z,15.70
2023-04-11T01:36:48.915Z,15.60
2023-04-11T01:39:20.484Z,15.40
2023-04-11T01:41:57.816Z,14.90
2023-04-11T01:44:29.729Z,14.50
2023-04-11T01:47:01.550Z,14.30
2023-04-11T01:49:33.541Z,14.00
2023-04-11T01:52:04.449Z,13.90
2023-04-11T01:54:35.402Z,13.70
2023-04-11T01:57:07.016Z,13.60
2023-04-11T01:59:37.944Z,13.60
2023-04-11T02:02:08.911Z,13.70
2023-04-11T02:04:39.880Z,13.80
2023-04-11T02:07:10.771Z,13.70
2023-04-11T02:09:41.663Z,13.60
2023-04-11T02:12:12.589Z,13.50
2023-04-11T02:14:45.629Z,13.50
2023-04-11T02:17:18.451Z,13.40
2023-04-11T02:19:49.388Z,13.40
2023-04-11T02:22:20.243Z,13.20
2023-04-11T02:24:51.478Z,12.80
2023-04-11T02:27:22.443Z,12.50
2023-04-11T02:29:53.308Z,12.20
2023-04-11T02:32:24.250Z,12.10
2023-04-11T02:34:55.975Z,11.80
2023-04-11T02:37:27.588Z,11.70
2023-04-11T02:39:58.933Z,11.50
2023-04-11T02:42:29.824Z,11.40
2023-04-11T02:45:00.867Z,11.20
2023-04-11T02:47:31.778Z,11.10
2023-04-11T02:50:02.754Z,11.00
2023-04-11T02:52:34.863Z,11.10
2023-04-11T02:55:06.216Z,11.00
2023-04-11T02:57:37.304Z,11.00
2023-04-11T03:00:09.655Z,10.90
2023-04-11T03:02:41.649Z,10.90
2023-04-11T03:05:13.313Z,10.90
2023-04-11T03:07:44.724Z,10.90
2023-04-11T03:10:15.824Z,10.90
2023-04-11T03:12:46.756Z,10.80
2023-04-11T03:15:17.712Z,10.70
2023-04-11T03:17:49.056Z,10.80
2023-04-11T03:20:20.323Z,10.80
2023-04-11T03:22:51.215Z,10.70
2023-04-11T03:25:22.597Z,10.80
2023-04-11T03:27:53.491Z,10.80
2023-04-11T03:30:24.341Z,10.70
2023-04-11T03:32:55.320Z,10.60
2023-04-11T03:35:26.952Z,10.50
2023-04-11T03:37:58.095Z,10.50
2023-04-11T03:40:29.013Z,10.40
2023-04-11T03:43:04.347Z,10.40
2023-04-11T03:45:35.398Z,10.40
2023-04-11T03:48:06.713Z,10.30
2023-04-11T03:50:38.025Z,10.40
2023-04-11T03:53:08.926Z,10.30
2023-04-11T03:55:39.840Z,10.20
2023-04-11T03:58:11.476Z,10.20
2023-04-11T04:00:42.357Z,10.30
2023-04-11T04:03:13.869Z,10.30
2023-04-11T04:05:44.865Z,10.30
2023-04-11T04:08:15.758Z,10.50
2023-04-11T04:10:47.172Z,10.50
2023-04-11T04:13:18.185Z,10.40
2023-04-11T04:15:51.594Z,10.40
2023-04-11T04:18:22.483Z,10.40
2023-04-11T04:20:53.573Z,10.40
2023-04-11T04:23:24.560Z,10.30
2023-04-11T04:25:58.149Z,10.10
2023-04-11T04:28:29.687Z,10.20
2023-04-11T04:31:02.217Z,10.20
2023-04-11T04:33:33.222Z,10.20
2023-04-11T04:36:04.745Z,10.20
2023-04-11T04:38:38.489Z,10.20
2023-04-11T04:41:15.702Z,10.10
2023-04-11T04:43:46.671Z,10.10
2023-04-11T04:46:17.561Z,10.10
2023-04-11T04:48:48.507Z,10.10
2023-04-11T04:51:19.363Z,10.20
2023-04-11T04:53:50.854Z,10.20
2023-04-11T04:56:21.781Z,10.10
2023-04-11T04:58:52.710Z,10.10
2023-04-11T05:01:26.804Z,10.00
2023-04-11T05:04:01.148Z,9.90
2023-04-11T05:06:33.027Z,9.80
2023-04-11T05:09:06.256Z,9.70
2023-04-11T05:11:37.325Z,9.60
2023-04-11T05:14:08.516Z,9.50
2023-04-11T05:16:42.334Z,9.30
2023-04-11T05:19:13.549Z,9.20
2023-04-11T05:21:44.853Z,9.00
2023-04-11T05:24:16.628Z,8.90
2023-04-11T05:26:50.464Z,8.70
2023-04-11T05:29:21.689Z,8.60
2023-04-11T05:31:52.692Z,8.60
2023-04-11T05:34:23.858Z,8.60
2023-04-11T05:36:54.928Z,8.60
2023-04-11T05:39:26.103Z,8.50
2023-04-11T05:41:57.240Z,8.50
2023-04-11T05:44:28.232Z,8.50
2023-04-11T05:46:59.326Z,8.50
2023-04-11T05:49:30.316Z,8.60
2023-04-11T05:52:01.316Z,8.60
2023-04-11T05:54:36.889Z,8.80
2023-04-11T05:57:07.916Z,8.90
2023-04-11T05:59:38.785Z,8.80
2023-04-11T06:02:09.812Z,8.90
2023-04-11T06:04:41.246Z,9.00
2023-04-11T06:07:12.501Z,8.80
2023-04-11T06:09:44.243Z,9.00
2023-04-11T06:12:15.176Z,9.00
2023-04-11T06:14:46.173Z,9.10
2023-04-11T06:17:17.143Z,9.10
2023-04-11T06:19:48.029Z,9.10
2023-04-11T06:22:18.960Z,9.20
2023-04-11T06:24:49.910Z,9.10
2023-04-11T06:27:20.796Z,9.10
2023-04-11T06:29:51.666Z,9.30
2023-04-11T06:32:22.746Z,9.30
2023-04-11T06:34:53.929Z,9.30
2023-04-11T06:37:24.878Z,9.30
2023-04-11T06:39:55.766Z,9.40
2023-04-11T06:42:27.597Z,9.40
2023-04-11T06:44:58.642Z,9.50
2023-04-11T06:47:29.736Z,9.40
2023-04-11T06:50:00.591Z,9.40
2023-04-11T06:52:31.561Z,9.50
2023-04-11T06:55:02.456Z,9.50
2023-04-11T06:57:33.881Z,9.60
2023-04-11T07:00:07.468Z,9.60
2023-04-11T07:02:39.508Z,9.60
2023-04-11T07:05:11.002Z,9.70
2023-04-11T07:07:42.096Z,9.70
2023-04-11T07:10:12.977Z,9.80
2023-04-11T07:12:44.054Z,9.80
2023-04-11T07:15:14.970Z,9.70
2023-04-11T07:17:50.306Z,9.70
2023-04-11T07:20:23.137Z,9.80
2023-04-11T07:22:54.168Z,9.90
2023-04-11T07:25:30.990Z,10.00
2023-04-11T07:28:02.417Z,10.00
2023-04-11T07:30:36.073Z,9.90
2023-04-11T07:33:07.180Z,10.00
2023-04-11T07:35:38.092Z,10.00
2023-04-11T07:38:10.300Z,10.00
2023-04-11T07:40:41.243Z,10.10
2023-04-11T07:43:12.147Z,10.10
2023-04-11T07:45:43.093Z,10.10
2023-04-11T07:48:14.017Z,10.20
2023-04-11T07:50:44.958Z,10.10
2023-04-11T07:53:16.432Z,10.10
2023-04-11T07:55:47.351Z,10.10
2023-04-11T07:58:18.261Z,10.10
2023-04-11T08:00:50.645Z,10.20
2023-04-11T08:03:23.497Z,10.20
2023-04-11T08:05:54.852Z,10.20
2023-04-11T08:08:26.238Z,10.10
2023-04-11T08:10:57.209Z,10.10
2023-04-11T08:13:28.127Z,10.10
2023-04-11T08:15:59.000Z,10.10
2023-04-11T08:18:29.992Z,10.10
2023-04-11T08:21:02.104Z,10.20
2023-04-11T08:23:32.986Z,10.20
2023-04-11T08:26:03.854Z,10.30
2023-04-11T08:28:35.905Z,10.40
2023-04-11T08:31:07.281Z,10.40
2023-04-11T08:33:39.531Z,10.40
2023-04-11T08:36:11.381Z,10.50
2023-04-11T08:38:42.751Z,10.60
2023-04-11T08:41:14.584Z,10.60
2023-04-11T08:43:47.006Z,10.70
2023-04-11T08:46:18.459Z,10.70
2023-04-11T08:48:49.808Z,10.70
2023-04-11T08:51:26.987Z,10.80
2023-04-11T08:54:02.127Z,10.80
2023-04-11T08:56:35.214Z,11.00
2023-04-11T08:59:06.136Z,11.00
2023-04-11T09:01:37.501Z,11.00
2023-04-11T09:04:10.027Z,11.00
2023-04-11T09:06:57.418Z,11.00
2023-04-11T09:09:33.094Z,11.00
2023-04-11T09:12:04.790Z,11.10
2023-04-11T09:14:36.080Z,11.20
2023-04-11T09:17:13.710Z,11.30
2023-04-11T09:19:47.520Z,11.30
2023-04-11T09:22:19.935Z,11.30
2023-04-11T09:25:03.652Z,11.50
2023-04-11T09:27:34.603Z,11.60
2023-04-11T09:30:06.349Z,11.60
2023-04-11T09:32:37.314Z,11.60
2023-04-11T09:35:12.744Z,11.60
2023-04-11T09:37:54.649Z,11.70
2023-04-11T09:40:28.618Z,11.70
2023-04-11T09:43:02.472Z,11.70
2023-04-11T09:45:40.923Z,11.70
2023-04-11T09:48:19.593Z,11.80
2023-04-11T09:50:51.869Z,12.00
2023-04-11T09:53:22.889Z,12.00
2023-04-11T09:55:54.572Z,12.10
2023-04-11T09:58:26.417Z,12.20
2023-04-11T10:00:59.200Z,12.20
2023-04-11T10:03:34.963Z,12.10
2023-04-11T10:06:31.798Z,12.00
2023-04-11T10:09:11.580Z,11.90
2023-04-11T10:11:44.516Z,12.00
2023-04-11T10:14:41.844Z,12.10
2023-04-11T10:17:22.915Z,12.10
2023-04-11T10:19:56.997Z,12.30
2023-04-11T10:22:43.975Z,12.40
2023-04-11T10:25:22.079Z,12.50
2023-04-11T10:28:04.127Z,12.30
2023-04-11T10:30:41.235Z,12.30
2023-04-11T10:33:16.145Z,12.30
2023-04-11T10:36:06.630Z,12.30
2023-04-11T10:38:40.996Z,12.30
2023-04-11T10:41:28.556Z,12.30
2023-04-11T10:44:21.300Z,12.00
2023-04-11T10:46:55.111Z,11.60
2023-04-11T10:49:40.748Z,11.50
2023-04-11T10:52:22.582Z,11.70
2023-04-11T10:54:54.578Z,12.00
2023-04-11T10:57:25.478Z,12.10
2023-04-11T10:59:57.581Z,12.20
2023-04-11T11:02:38.096Z,12.40
2023-04-11T11:05:17.242Z,12.60
2023-04-11T11:07:49.959Z,12.70
2023-04-11T11:10:47.820Z,12.90
2023-04-11T11:13:18.834Z,13.20
2023-04-11T11:15:50.619Z,13.40
2023-04-11T11:18:22.126Z,13.30
2023-04-11T11:20:56.346Z,13.10
2023-04-11T11:23:27.853Z,13.20
2023-04-11T11:26:00.288Z,13.30
2023-04-11T11:28:31.264Z,13.60
2023-04-11T11:31:04.068Z,13.80
2023-04-11T11:33:44.411Z,14.00
2023-04-11T11:36:15.785Z,13.90
2023-04-11T11:38:46.804Z,13.80
2023-04-11T11:41:17.811Z,13.70
2023-04-11T11:43:48.775Z,13.70
2023-04-11T11:46:19.843Z,13.60
2023-04-11T11:49:08.508Z,13.70
2023-04-11T11:51:44.363Z,13.70
2023-04-11T11:54:15.305Z,13.50
2023-04-11T11:56:52.791Z,13.50
2023-04-11T11:59:30.300Z,13.70
2023-04-11T12:02:02.885Z,13.70
2023-04-11T12:04:34.320Z,13.80
2023-04-11T12:07:12.322Z,13.80
2023-04-11T12:09:43.225Z,13.90
2023-04-11T12:12:17.273Z,13.90
2023-04-11T12:14:54.974Z,13.90
2023-04-11T12:17:32.017Z,14.00
2023-04-11T12:20:06.928Z,13.90
2023-04-11T12:22:38.561Z,13.70
2023-04-11T12:25:15.313Z,13.60
2023-04-11T12:27:48.566Z,13.50
2023-04-11T12:30:19.570Z,13.50
2023-04-11T12:32:50.568Z,13.60
2023-04-11T12:35:22.068Z,13.70
2023-04-11T12:37:53.113Z,13.70
2023-04-11T12:40:25.332Z,13.70
2023-04-11T12:44:23.017Z,13.70
2023-04-11T12:45:47.147Z,13.60
2023-04-11T12:48:18.120Z,13.40
2023-04-11T12:50:49.038Z,13.30
2023-04-11T12:53:21.245Z,13.40
2023-04-11T12:55:53.054Z,13.50
2023-04-11T12:58:24.265Z,13.60
2023-04-11T13:00:55.634Z,13.70
2023-04-11T13:03:27.376Z,13.70
2023-04-11T13:05:58.475Z,13.70
2023-04-11T13:08:29.404Z,13.70
2023-04-11T13:11:00.369Z,13.80
2023-04-11T13:13:31.318Z,13.90
2023-04-11T13:16:02.336Z,13.90
2023-04-11T13:18:33.241Z,13.90
2023-04-11T13:21:04.415Z,14.00
2023-04-11T13:23:36.051Z,14.00
2023-04-11T13:26:07.703Z,14.10
2023-04-11T13:28:39.047Z,14.10
2023-04-11T13:31:10.370Z,14.10
2023-04-11T13:33:42.411Z,14.20
2023-04-11T13:36:13.329Z,14.20
2023-04-11T13:38:46.922Z,14.30
2023-04-11T13:41:17.866Z,14.30
2023-04-11T13:43:49.983Z,14.30
2023-04-11T13:46:21.864Z,14.30
2023-04-11T13:48:53.008Z,14.30
2023-04-11T13:51:23.886Z,14.30
2023-04-11T13:53:54.789Z,14.30
2023-04-11T13:56:26.495Z,14.50
2023-04-11T13:58:57.534Z,14.40
2023-04-11T14:01:28.600Z,14.40
2023-04-11T14:04:00.260Z,14.40
2023-04-11T14:06:31.630Z,14.40
2023-04-11T14:09:04.649Z,14.40
2023-04-11T14:11:35.589Z,14.50
2023-04-11T14:14:06.500Z,14.50
2023-04-11T14:16:37.493Z,14.40
2023-04-11T14:19:08.480Z,14.30
2023-04-11T14:21:39.445Z,14.30
2023-04-11T14:24:10.588Z,14.40
2023-04-11T14:26:41.720Z,14.50
2023-04-11T14:29:12.818Z,14.50
2023-04-11T14:31:44.337Z,14.70
2023-04-11T14:34:16.102Z,14.70
2023-04-11T14:36:47.032Z,14.70
2023-04-11T14:39:18.055Z,14.60
2023-04-11T14:41:49.186Z,14.60
2023-04-11T14:44:20.136Z,14.60
2023-04-11T14:46:51.179Z,14.70
2023-04-11T14:49:22.120Z,15.00
2023-04-11T14:51:53.003Z,15.00
2023-04-11T14:54:24.654Z,14.90
2023-04-11T14:56:56.158Z,14.80
2023-04-11T14:59:27.278Z,14.80
2023-04-11T15:01:58.375Z,14.60
2023-04-11T15:04:29.561Z,14.60
2023-04-11T15:07:00.511Z,14.70
2023-04-11T15:09:31.624Z,14.80
2023-04-11T15:12:02.488Z,14.80
2023-04-11T15:14:33.477Z,14.90
2023-04-11T15:17:04.441Z,15.00
2023-04-11T15:19:35.325Z,15.00
2023-04-11T15:22:06.219Z,15.00
2023-04-11T15:24:37.094Z,14.90
2023-04-11T15:27:08.005Z,14.90
2023-04-11T15:29:38.964Z,14.90
2023-04-11T15:32:09.887Z,15.00
2023-04-11T15:34:41.622Z,15.00
2023-04-11T15:37:13.290Z,14.90
2023-04-11T15:39:44.156Z,15.00
2023-04-11T15:42:15.132Z,15.00
2023-04-11T15:44:46.734Z,15.00
2023-04-11T15:47:18.368Z,15.10
2023-04-11T15:49:49.288Z,15.10
2023-04-11T15:52:21.363Z,15.00
2023-04-11T15:54:52.245Z,14.90
2023-04-11T15:57:23.208Z,14.80
2023-04-11T15:59:54.103Z,14.80
2023-04-11T16:02:25.219Z,14.80
2023-04-11T16:04:56.426Z,14.80
2023-04-11T16:07:28.033Z,14.90
2023-04-11T16:09:58.906Z,15.00
2023-04-11T16:12:29.819Z,15.00
2023-04-11T16:15:00.810Z,15.10
2023-04-11T16:17:31.834Z,15.10
2023-04-11T16:20:06.835Z,15.00
2023-04-11T16:22:39.126Z,14.90
2023-04-11T16:25:10.332Z,14.70
2023-04-11T16:27:41.431Z,14.70
2023-04-11T16:30:12.803Z,14.70
2023-04-11T16:32:43.753Z,14.60
2023-04-11T16:35:14.696Z,14.50
2023-04-11T16:37:45.672Z,14.30
2023-04-11T16:40:17.148Z,14.10
2023-04-11T16:42:48.082Z,14.10
2023-04-11T16:45:19.052Z,14.10
2023-04-11T16:47:50.259Z,14.10
2023-04-11T16:50:21.429Z,14.00
2023-04-11T16:52:52.477Z,14.10
2023-04-11T16:55:23.829Z,14.00
2023-04-11T16:57:54.709Z,14.00
2023-04-11T17:00:25.862Z,13.90
2023-04-11T17:02:57.227Z,13.90
2023-04-11T17:05:28.450Z,13.90
2023-04-11T17:07:59.434Z,13.90
2023-04-11T17:10:30.405Z,13.80
2023-04-11T17:13:01.490Z,13.90
2023-04-11T17:15:34.619Z,14.00
2023-04-11T17:18:05.862Z,13.90
2023-04-11T17:20:36.742Z,13.90
2023-04-11T17:23:07.630Z,13.80
2023-04-11T17:25:38.502Z,13.70
2023-04-11T17:28:09.702Z,13.70
2023-04-11T17:30:40.789Z,13.70
2023-04-11T17:33:11.734Z,13.80
2023-04-11T17:35:44.681Z,13.90
2023-04-11T17:38:17.868Z,13.80
2023-04-11T17:40:48.960Z,13.70
2023-04-11T17:43:20.037Z,13.70
2023-04-11T17:45:51.136Z,13.60
2023-04-11T17:48:23.150Z,13.60
2023-04-11T17:50:55.865Z,13.60
2023-04-11T17:53:27.220Z,13.50
2023-04-11T17:55:58.310Z,13.50
2023-04-11T17:58:29.244Z,13.50
2023-04-11T18:01:00.360Z,13.50
2023-04-11T18:03:35.175Z,13.50
2023-04-11T18:06:11.165Z,13.50
2023-04-11T18:11:15.907Z,13.50
2023-04-11T18:13:49.858Z,13.50
2023-04-11T18:16:21.512Z,13.50
2023-04-11T18:18:53.546Z,13.50
2023-04-11T18:21:24.500Z,13.40
2023-04-11T18:23:55.591Z,13.40
2023-04-11T18:26:27.452Z,13.40
2023-04-11T18:29:00.436Z,13.30
2023-04-11T18:31:35.060Z,13.30
2023-04-11T18:34:07.268Z,13.30
2023-04-11T18:36:38.907Z,13.40
2023-04-11T18:39:10.158Z,13.30
2023-04-11T18:41:41.081Z,13.20
2023-04-11T18:44:12.178Z,13.10
2023-04-11T18:46:43.479Z,13.00
2023-04-11T18:49:17.668Z,12.80
2023-04-11T18:51:49.029Z,12.70
2023-04-11T18:54:21.390Z,12.60
2023-04-11T18:59:27.384Z,12.40
2023-04-11T19:02:00.480Z,12.20
2023-04-11T19:04:33.871Z,12.20
2023-04-11T19:07:04.906Z,12.10
2023-04-11T19:09:35.856Z,12.00
2023-04-11T19:12:07.440Z,12.00
2023-04-11T19:14:38.388Z,12.00
2023-04-11T19:17:12.722Z,12.10
2023-04-11T19:19:43.628Z,12.60
2023-04-11T19:22:14.585Z,12.70
2023-04-11T19:24:46.469Z,12.50
2023-04-11T19:27:18.452Z,12.30
2023-04-11T19:29:49.483Z,12.10
2023-04-11T19:32:20.506Z,12.00
2023-04-11T19:34:51.543Z,11.80
2023-04-11T19:37:23.310Z,11.70
2023-04-11T19:39:54.227Z,11.60
2023-04-11T19:42:25.352Z,11.60
2023-04-11T19:44:56.334Z,11.40
2023-04-11T19:47:27.460Z,11.30
2023-04-11T19:50:00.913Z,11.30
2023-04-11T19:52:32.314Z,11.20
2023-04-11T19:55:03.289Z,11.10
2023-04-11T19:57:34.429Z,11.00
2023-04-11T20:00:13.961Z,11.00
2023-04-11T20:02:48.628Z,10.90
2023-04-11T20:05:22.168Z,10.90
2023-04-11T20:07:53.220Z,10.70
2023-04-11T20:10:24.287Z,10.80
2023-04-11T20:12:55.163Z,10.70
2023-04-11T20:15:26.524Z,10.70
2023-04-11T20:17:57.992Z,10.70
2023-04-11T20:20:29.475Z,10.60
2023-04-11T20:23:04.919Z,10.50
2023-04-11T20:25:36.092Z,10.50
2023-04-11T20:28:07.082Z,10.50
2023-04-11T20:30:39.070Z,10.60
2023-04-11T20:33:10.017Z,10.50
2023-04-11T20:35:40.988Z,10.40
2023-04-11T20:38:12.375Z,11.00
2023-04-11T20:40:43.369Z,11.80
2023-04-11T20:43:16.573Z,12.00
2023-04-11T20:45:47.481Z,11.70
2023-04-11T20:48:19.873Z,11.30
2023-04-11T20:50:53.644Z,11.10
2023-04-11T20:53:25.584Z,10.80
2023-04-11T20:55:58.448Z,10.70
2023-04-11T20:58:29.365Z,10.60
2023-04-11T21:01:00.556Z,10.50
2023-04-11T21:03:33.785Z,10.50
2023-04-11T21:06:07.499Z,10.40
2023-04-11T21:08:38.555Z,10.40
2023-04-11T21:11:09.468Z,10.40
2023-04-11T21:13:40.550Z,10.40
2023-04-11T21:16:11.629Z,10.50
2023-04-11T21:18:42.896Z,10.40
2023-04-11T21:21:13.939Z,10.40
2023-04-11T21:23:44.987Z,10.50
2023-04-11T21:26:16.115Z,10.60
2023-04-11T21:28:47.108Z,10.60
2023-04-11T21:31:18.105Z,10.70
2023-04-11T21:33:49.022Z,10.70
2023-04-11T21:36:19.962Z,10.80
2023-04-11T21:38:50.901Z,10.80
2023-04-11T21:41:21.947Z,10.80
2023-04-11T21:43:52.839Z,10.90
2023-04-11T21:46:23.880Z,10.90
2023-04-11T21:48:55.028Z,10.80
2023-04-11T21:51:26.758Z,10.90
2023-04-11T21:53:57.760Z,11.00
2023-04-11T21:56:28.771Z,10.90
2023-04-11T21:58:59.666Z,10.90
2023-04-11T22:01:30.980Z,10.90
2023-04-11T22:04:02.704Z,10.90
2023-04-11T22:06:34.279Z,10.90
2023-04-11T22:09:05.643Z,10.80
2023-04-11T22:11:36.549Z,10.90
2023-04-11T22:14:08.332Z,10.90
2023-04-11T22:16:42.210Z,10.80
2023-04-11T22:19:13.272Z,10.80
2023-04-11T22:21:48.738Z,10.80
2023-04-11T22:24:22.317Z,10.80
2023-04-11T22:26:53.901Z,10.80
2023-04-11T22:29:30.643Z,10.80
2023-04-11T22:32:03.979Z,10.80
2023-04-11T22:34:35.076Z,10.90
2023-04-11T22:37:06.020Z,10.90
2023-04-11T22:39:37.456Z,10.90
2023-04-11T22:42:08.692Z,10.90
2023-04-11T22:44:39.687Z,10.90
2023-04-11T22:47:15.981Z,11.00
2023-04-11T22:49:46.957Z,10.90
2023-04-11T22:52:24.337Z,10.90
2023-04-11T22:54:55.798Z,10.90
2023-04-11T22:57:26.722Z,10.80
2023-04-11T22:59:58.888Z,10.80
2023-04-11T23:02:32.021Z,10.80
2023-04-11T23:05:04.727Z,10.80
2023-04-11T23:07:35.744Z,10.80
2023-04-11T23:10:09.154Z,10.80
2023-04-11T23:12:41.501Z,10.80
2023-04-11T23:15:12.529Z,10.70
2023-04-11T23:17:43.989Z,10.70
2023-04-11T23:20:15.796Z,10.70
2023-04-11T23:22:46.676Z,10.70
2023-04-11T23:25:17.649Z,10.60
2023-04-11T23:27:48.609Z,10.80
2023-04-11T23:30:20.163Z,10.70
2023-04-11T23:32:51.223Z,10.70
2023-04-11T23:35:23.209Z,10.80
2023-04-11T23:37:54.226Z,10.70
2023-04-11T23:40:25.097Z,10.70
2023-04-11T23:42:57.944Z,10.80
2023-04-11T23:45:28.944Z,10.70
2023-04-11T23:47:59.893Z,10.70
2023-04-11T23:50:30.730Z,10.50
2023-04-11T23:53:01.924Z,10.60
2023-04-11T23:55:33.010Z,10.60
2023-04-11T23:58:04.172Z,10.50
